sensor_id;sensor_type;location;lat;lon;timestamp;temperature;humidity
64484;DHT22;50862;51.642;7.964;2022-08-19T00:01:55;18.10;99.90
64484;DHT22;50862;51.642;7.964;2022-08-19T00:04:27;18.50;99.90
64484;DHT22;50862;51.642;7.964;2022-08-19T00:06:57;18.50;99.90
64484;DHT22;50862;51.642;7.964;2022-08-19T00:09:27;18.40;99.90
64484;DHT22;50862;51.642;7.964;2022-08-19T00:11:56;18.10;99.90
64484;DHT22;50862;51.642;7.964;2022-08-19T00:14:25;18.60;99.90
64484;DHT22;50862;51.642;7.964;2022-08-19T00:16:54;17.40;99.90
64484;DHT22;50862;51.642;7.964;2022-08-19T00:19:23;18.00;99.90
64484;DHT22;50862;51.642;7.964;2022-08-19T00:21:51;17.90;99.90
64484;DHT22;50862;51.642;7.964;2022-08-19T00:24:19;18.30;99.90
64484;DHT22;50862;51.642;7.964;2022-08-19T00:26:49;18.20;99.90
64484;DHT22;50862;51.642;7.964;2022-08-19T00:29:20;17.00;99.90
64484;DHT22;50862;51.642;7.964;2022-08-19T00:31:50;17.30;99.90
64484;DHT22;50862;51.642;7.964;2022-08-19T00:34:22;16.90;99.90
64484;DHT22;50862;51.642;7.964;2022-08-19T00:36:50;16.90;99.90
64484;DHT22;50862;51.642;7.964;2022-08-19T00:39:19;17.00;99.90
64484;DHT22;50862;51.642;7.964;2022-08-19T00:41:50;18.00;99.90
64484;DHT22;50862;51.642;7.964;2022-08-19T00:44:21;18.30;99.90
64484;DHT22;50862;51.642;7.964;2022-08-19T00:46:54;17.20;99.90
64484;DHT22;50862;51.642;7.964;2022-08-19T00:49:27;16.80;99.90
64484;DHT22;50862;51.642;7.964;2022-08-19T00:52:00;18.20;99.90
64484;DHT22;50862;51.642;7.964;2022-08-19T00:54:29;17.20;99.90
64484;DHT22;50862;51.642;7.964;2022-08-19T00:56:59;17.30;99.90
64484;DHT22;50862;51.642;7.964;2022-08-19T00:59:29;17.00;99.90
64484;DHT22;50862;51.642;7.964;2022-08-19T01:02:18;17.30;99.90
64484;DHT22;50862;51.642;7.964;2022-08-19T01:04:46;17.20;99.90
64484;DHT22;50862;51.642;7.964;2022-08-19T01:07:15;17.20;99.90
64484;DHT22;50862;51.642;7.964;2022-08-19T01:09:45;16.80;99.90
64484;DHT22;50862;51.642;7.964;2022-08-19T01:12:16;17.20;99.90
64484;DHT22;50862;51.642;7.964;2022-08-19T01:14:46;16.60;99.90
64484;DHT22;50862;51.642;7.964;2022-08-19T01:17:16;17.00;99.90
64484;DHT22;50862;51.642;7.964;2022-08-19T01:19:45;17.10;99.90
64484;DHT22;50862;51.642;7.964;2022-08-19T01:22:19;16.70;99.90
64484;DHT22;50862;51.642;7.964;2022-08-19T01:24:58;17.10;99.90
64484;DHT22;50862;51.642;7.964;2022-08-19T01:27:26;17.10;99.90
64484;DHT22;50862;51.642;7.964;2022-08-19T01:30:10;17.00;99.90
64484;DHT22;50862;51.642;7.964;2022-08-19T01:35:08;16.90;99.90
64484;DHT22;50862;51.642;7.964;2022-08-19T01:37:45;17.20;99.90
64484;DHT22;50862;51.642;7.964;2022-08-19T01:40:16;16.70;99.90
64484;DHT22;50862;51.642;7.964;2022-08-19T01:42:46;17.30;99.90
64484;DHT22;50862;51.642;7.964;2022-08-19T01:45:14;14.20;99.90
64484;DHT22;50862;51.642;7.964;2022-08-19T01:50:29;17.10;99.90
64484;DHT22;50862;51.642;7.964;2022-08-19T01:52:57;17.10;99.90
64484;DHT22;50862;51.642;7.964;2022-08-19T01:55:35;16.90;99.90
64484;DHT22;50862;51.642;7.964;2022-08-19T01:58:08;17.00;99.90
64484;DHT22;50862;51.642;7.964;2022-08-19T02:08:05;16.90;99.90
64484;DHT22;50862;51.642;7.964;2022-08-19T02:10:38;17.10;99.90
64484;DHT22;50862;51.642;7.964;2022-08-19T02:15:37;16.50;99.90
64484;DHT22;50862;51.642;7.964;2022-08-19T02:20:35;16.70;99.90
64484;DHT22;50862;51.642;7.964;2022-08-19T02:25:41;16.80;99.90
64484;DHT22;50862;51.642;7.964;2022-08-19T02:28:11;16.50;99.90
64484;DHT22;50862;51.642;7.964;2022-08-19T02:30:45;16.70;99.90
64484;DHT22;50862;51.642;7.964;2022-08-19T02:33:13;16.50;99.90
64484;DHT22;50862;51.642;7.964;2022-08-19T02:35:42;16.40;99.90
64484;DHT22;50862;51.642;7.964;2022-08-19T02:38:10;16.20;99.90
64484;DHT22;50862;51.642;7.964;2022-08-19T02:40:56;16.50;99.90
64484;DHT22;50862;51.642;7.964;2022-08-19T02:43:26;17.20;99.90
64484;DHT22;50862;51.642;7.964;2022-08-19T02:45:59;17.20;99.90
64484;DHT22;50862;51.642;7.964;2022-08-19T02:48:27;16.60;99.90
64484;DHT22;50862;51.642;7.964;2022-08-19T02:50:55;16.20;99.90
64484;DHT22;50862;51.642;7.964;2022-08-19T02:53:26;16.30;99.90
64484;DHT22;50862;51.642;7.964;2022-08-19T02:55:57;16.60;99.90
64484;DHT22;50862;51.642;7.964;2022-08-19T02:58:25;16.80;99.90
64484;DHT22;50862;51.642;7.964;2022-08-19T03:00:55;16.80;99.90
64484;DHT22;50862;51.642;7.964;2022-08-19T03:03:24;16.40;99.90
64484;DHT22;50862;51.642;7.964;2022-08-19T03:06:04;16.80;99.90
64484;DHT22;50862;51.642;7.964;2022-08-19T03:08:32;17.00;99.90
64484;DHT22;50862;51.642;7.964;2022-08-19T03:11:02;16.40;99.90
64484;DHT22;50862;51.642;7.964;2022-08-19T03:13:30;16.70;99.90
64484;DHT22;50862;51.642;7.964;2022-08-19T03:18:27;17.10;99.90
64484;DHT22;50862;51.642;7.964;2022-08-19T03:23:24;16.80;99.90
64484;DHT22;50862;51.642;7.964;2022-08-19T03:25:53;16.60;99.90
64484;DHT22;50862;51.642;7.964;2022-08-19T03:28:31;16.60;99.90
64484;DHT22;50862;51.642;7.964;2022-08-19T03:31:04;16.20;99.90
64484;DHT22;50862;51.642;7.964;2022-08-19T03:36:23;17.20;99.90
64484;DHT22;50862;51.642;7.964;2022-08-19T03:38:56;16.70;99.90
64484;DHT22;50862;51.642;7.964;2022-08-19T03:41:27;16.90;99.90
64484;DHT22;50862;51.642;7.964;2022-08-19T03:44:13;16.80;99.90
64484;DHT22;50862;51.642;7.964;2022-08-19T03:46:45;16.40;99.90
64484;DHT22;50862;51.642;7.964;2022-08-19T03:54:14;15.90;99.90
64484;DHT22;50862;51.642;7.964;2022-08-19T03:56:44;16.20;99.90
64484;DHT22;50862;51.642;7.964;2022-08-19T03:59:17;16.60;99.90
64484;DHT22;50862;51.642;7.964;2022-08-19T04:04:13;16.10;99.90
64484;DHT22;50862;51.642;7.964;2022-08-19T04:06:43;16.60;99.90
64484;DHT22;50862;51.642;7.964;2022-08-19T04:09:14;15.70;99.90
64484;DHT22;50862;51.642;7.964;2022-08-19T04:11:47;16.00;99.90
64484;DHT22;50862;51.642;7.964;2022-08-19T04:14:19;15.90;99.90
64484;DHT22;50862;51.642;7.964;2022-08-19T04:16:49;16.20;99.90
64484;DHT22;50862;51.642;7.964;2022-08-19T04:19:19;16.00;99.90
64484;DHT22;50862;51.642;7.964;2022-08-19T04:21:49;15.90;99.90
64484;DHT22;50862;51.642;7.964;2022-08-19T04:24:18;15.80;99.90
64484;DHT22;50862;51.642;7.964;2022-08-19T04:26:47;16.10;99.90
64484;DHT22;50862;51.642;7.964;2022-08-19T04:29:24;16.30;99.90
64484;DHT22;50862;51.642;7.964;2022-08-19T04:31:55;15.70;99.90
64484;DHT22;50862;51.642;7.964;2022-08-19T04:34:25;15.90;99.90
64484;DHT22;50862;51.642;7.964;2022-08-19T04:36:57;16.60;99.90
64484;DHT22;50862;51.642;7.964;2022-08-19T04:39:28;15.60;99.90
64484;DHT22;50862;51.642;7.964;2022-08-19T04:44:58;15.60;99.90
64484;DHT22;50862;51.642;7.964;2022-08-19T04:50:19;15.70;99.90
64484;DHT22;50862;51.642;7.964;2022-08-19T04:52:51;15.90;99.90
64484;DHT22;50862;51.642;7.964;2022-08-19T04:55:20;15.70;99.90
64484;DHT22;50862;51.642;7.964;2022-08-19T05:00:18;15.50;99.90
64484;DHT22;50862;51.642;7.964;2022-08-19T05:02:47;16.50;99.90
64484;DHT22;50862;51.642;7.964;2022-08-19T05:07:44;16.50;99.90
64484;DHT22;50862;51.642;7.964;2022-08-19T05:10:13;16.40;99.90
64484;DHT22;50862;51.642;7.964;2022-08-19T05:12:41;17.00;99.90
64484;DHT22;50862;51.642;7.964;2022-08-19T05:15:09;16.30;99.90
64484;DHT22;50862;51.642;7.964;2022-08-19T05:17:39;16.40;99.90
64484;DHT22;50862;51.642;7.964;2022-08-19T05:23:15;16.70;99.90
64484;DHT22;50862;51.642;7.964;2022-08-19T05:25:48;16.60;99.90
64484;DHT22;50862;51.642;7.964;2022-08-19T05:28:18;16.60;99.90
64484;DHT22;50862;51.642;7.964;2022-08-19T05:30:47;17.20;99.90
64484;DHT22;50862;51.642;7.964;2022-08-19T05:33:18;16.80;99.90
64484;DHT22;50862;51.642;7.964;2022-08-19T05:35:47;16.80;99.90
64484;DHT22;50862;51.642;7.964;2022-08-19T05:38:16;17.10;99.90
64484;DHT22;50862;51.642;7.964;2022-08-19T05:43:14;17.00;99.90
64484;DHT22;50862;51.642;7.964;2022-08-19T05:45:43;17.20;99.90
64484;DHT22;50862;51.642;7.964;2022-08-19T05:48:13;16.70;99.90
64484;DHT22;50862;51.642;7.964;2022-08-19T05:50:42;17.20;99.90
64484;DHT22;50862;51.642;7.964;2022-08-19T05:53:12;16.80;99.90
64484;DHT22;50862;51.642;7.964;2022-08-19T05:55:41;16.90;99.90
64484;DHT22;50862;51.642;7.964;2022-08-19T05:58:10;17.20;99.90
64484;DHT22;50862;51.642;7.964;2022-08-19T06:00:38;17.40;99.90
64484;DHT22;50862;51.642;7.964;2022-08-19T06:03:06;17.30;99.90
64484;DHT22;50862;51.642;7.964;2022-08-19T06:05:38;17.30;99.90
64484;DHT22;50862;51.642;7.964;2022-08-19T06:08:19;17.00;99.90
64484;DHT22;50862;51.642;7.964;2022-08-19T06:11:16;18.00;99.90
64484;DHT22;50862;51.642;7.964;2022-08-19T06:13:46;18.30;99.90
64484;DHT22;50862;51.642;7.964;2022-08-19T06:18:55;18.30;99.90
64484;DHT22;50862;51.642;7.964;2022-08-19T06:21:25;17.90;99.90
64484;DHT22;50862;51.642;7.964;2022-08-19T06:23:56;18.50;99.90
64484;DHT22;50862;51.642;7.964;2022-08-19T06:26:25;18.50;99.90
64484;DHT22;50862;51.642;7.964;2022-08-19T06:31:24;18.90;99.90
64484;DHT22;50862;51.642;7.964;2022-08-19T06:33:53;18.60;99.90
64484;DHT22;50862;51.642;7.964;2022-08-19T06:36:23;18.50;99.90
64484;DHT22;50862;51.642;7.964;2022-08-19T06:38:53;19.10;99.90
64484;DHT22;50862;51.642;7.964;2022-08-19T06:41:25;18.70;99.90
64484;DHT22;50862;51.642;7.964;2022-08-19T06:43:54;18.40;99.90
64484;DHT22;50862;51.642;7.964;2022-08-19T06:46:24;18.50;99.90
64484;DHT22;50862;51.642;7.964;2022-08-19T06:48:53;18.70;99.90
64484;DHT22;50862;51.642;7.964;2022-08-19T06:51:22;19.80;99.90
64484;DHT22;50862;51.642;7.964;2022-08-19T06:53:54;19.10;99.90
64484;DHT22;50862;51.642;7.964;2022-08-19T06:56:27;19.20;99.90
64484;DHT22;50862;51.642;7.964;2022-08-19T06:58:59;19.00;99.90
64484;DHT22;50862;51.642;7.964;2022-08-19T07:01:27;19.70;99.90
64484;DHT22;50862;51.642;7.964;2022-08-19T07:03:55;19.20;99.90
64484;DHT22;50862;51.642;7.964;2022-08-19T07:06:24;19.80;99.90
64484;DHT22;50862;51.642;7.964;2022-08-19T07:09:12;20.40;99.90
64484;DHT22;50862;51.642;7.964;2022-08-19T07:11:47;20.30;99.90
64484;DHT22;50862;51.642;7.964;2022-08-19T07:14:18;20.50;99.90
64484;DHT22;50862;51.642;7.964;2022-08-19T07:16:47;20.50;99.90
64484;DHT22;50862;51.642;7.964;2022-08-19T07:19:17;20.70;99.90
64484;DHT22;50862;51.642;7.964;2022-08-19T07:21:47;20.90;99.90
64484;DHT22;50862;51.642;7.964;2022-08-19T07:24:17;21.10;99.90
64484;DHT22;50862;51.642;7.964;2022-08-19T07:26:46;21.40;99.90
64484;DHT22;50862;51.642;7.964;2022-08-19T07:29:18;21.60;99.90
64484;DHT22;50862;51.642;7.964;2022-08-19T07:31:54;21.80;99.90
64484;DHT22;50862;51.642;7.964;2022-08-19T07:34:27;22.00;99.90
64484;DHT22;50862;51.642;7.964;2022-08-19T07:36:56;22.20;99.90
64484;DHT22;50862;51.642;7.964;2022-08-19T07:39:27;22.50;99.90
64484;DHT22;50862;51.642;7.964;2022-08-19T07:41:58;22.60;99.90
64484;DHT22;50862;51.642;7.964;2022-08-19T07:44:27;22.70;99.90
64484;DHT22;50862;51.642;7.964;2022-08-19T07:46:57;22.80;99.90
64484;DHT22;50862;51.642;7.964;2022-08-19T07:49:26;22.90;99.90
64484;DHT22;50862;51.642;7.964;2022-08-19T07:51:57;23.10;99.90
64484;DHT22;50862;51.642;7.964;2022-08-19T07:54:27;23.10;99.90
64484;DHT22;50862;51.642;7.964;2022-08-19T07:56:57;23.20;99.90
64484;DHT22;50862;51.642;7.964;2022-08-19T07:59:25;23.40;99.90
64484;DHT22;50862;51.642;7.964;2022-08-19T08:01:53;23.30;99.90
64484;DHT22;50862;51.642;7.964;2022-08-19T08:04:22;23.40;99.90
64484;DHT22;50862;51.642;7.964;2022-08-19T08:07:08;23.40;99.90
64484;DHT22;50862;51.642;7.964;2022-08-19T08:09:57;23.20;99.90
64484;DHT22;50862;51.642;7.964;2022-08-19T08:12:33;23.20;99.90
64484;DHT22;50862;51.642;7.964;2022-08-19T08:15:07;23.30;99.90
64484;DHT22;50862;51.642;7.964;2022-08-19T08:17:39;23.40;99.90
64484;DHT22;50862;51.642;7.964;2022-08-19T08:20:18;23.30;99.90
64484;DHT22;50862;51.642;7.964;2022-08-19T08:22:47;23.30;99.90
64484;DHT22;50862;51.642;7.964;2022-08-19T08:25:35;23.40;99.90
64484;DHT22;50862;51.642;7.964;2022-08-19T08:28:05;23.40;99.90
64484;DHT22;50862;51.642;7.964;2022-08-19T08:30:37;23.50;99.90
64484;DHT22;50862;51.642;7.964;2022-08-19T08:33:11;23.80;99.90
64484;DHT22;50862;51.642;7.964;2022-08-19T08:35:40;23.90;99.90
64484;DHT22;50862;51.642;7.964;2022-08-19T08:38:09;23.90;99.90
64484;DHT22;50862;51.642;7.964;2022-08-19T08:40:42;23.80;99.50
64484;DHT22;50862;51.642;7.964;2022-08-19T08:43:22;24.20;98.90
64484;DHT22;50862;51.642;7.964;2022-08-19T08:46:00;24.60;97.00
64484;DHT22;50862;51.642;7.964;2022-08-19T08:48:37;25.20;95.30
64484;DHT22;50862;51.642;7.964;2022-08-19T08:51:11;25.40;94.00
64484;DHT22;50862;51.642;7.964;2022-08-19T08:53:47;25.50;92.50
64484;DHT22;50862;51.642;7.964;2022-08-19T08:56:22;25.60;92.80
64484;DHT22;50862;51.642;7.964;2022-08-19T08:58:57;25.70;91.10
64484;DHT22;50862;51.642;7.964;2022-08-19T09:01:26;26.00;91.10
64484;DHT22;50862;51.642;7.964;2022-08-19T09:03:56;26.20;88.90
64484;DHT22;50862;51.642;7.964;2022-08-19T09:06:35;26.00;88.90
64484;DHT22;50862;51.642;7.964;2022-08-19T09:09:13;26.30;85.80
64484;DHT22;50862;51.642;7.964;2022-08-19T09:11:56;26.50;87.70
64484;DHT22;50862;51.642;7.964;2022-08-19T09:14:37;26.50;82.60
64484;DHT22;50862;51.642;7.964;2022-08-19T09:17:18;26.30;82.10
64484;DHT22;50862;51.642;7.964;2022-08-19T09:19:50;25.90;82.10
64484;DHT22;50862;51.642;7.964;2022-08-19T09:22:19;25.60;84.40
64484;DHT22;50862;51.642;7.964;2022-08-19T09:24:52;25.60;85.70
64484;DHT22;50862;51.642;7.964;2022-08-19T09:27:21;25.80;84.40
64484;DHT22;50862;51.642;7.964;2022-08-19T09:30:13;26.30;82.10
64484;DHT22;50862;51.642;7.964;2022-08-19T09:32:43;26.20;81.20
64484;DHT22;50862;51.642;7.964;2022-08-19T09:35:13;26.00;82.80
64484;DHT22;50862;51.642;7.964;2022-08-19T09:37:42;26.30;81.30
64484;DHT22;50862;51.642;7.964;2022-08-19T09:40:11;26.70;79.70
64484;DHT22;50862;51.642;7.964;2022-08-19T09:42:42;27.10;78.80
64484;DHT22;50862;51.642;7.964;2022-08-19T09:45:21;27.40;74.90
64484;DHT22;50862;51.642;7.964;2022-08-19T09:47:51;27.20;74.70
64484;DHT22;50862;51.642;7.964;2022-08-19T09:50:22;27.70;74.00
64484;DHT22;50862;51.642;7.964;2022-08-19T09:52:51;27.60;71.30
64484;DHT22;50862;51.642;7.964;2022-08-19T09:55:24;27.60;70.40
64484;DHT22;50862;51.642;7.964;2022-08-19T09:57:59;27.60;70.90
64484;DHT22;50862;51.642;7.964;2022-08-19T10:00:29;27.30;70.30
64484;DHT22;50862;51.642;7.964;2022-08-19T10:02:58;27.00;71.90
64484;DHT22;50862;51.642;7.964;2022-08-19T10:05:27;26.70;71.30
64484;DHT22;50862;51.642;7.964;2022-08-19T10:08:15;26.80;71.20
64484;DHT22;50862;51.642;7.964;2022-08-19T10:10:44;27.30;68.90
64484;DHT22;50862;51.642;7.964;2022-08-19T10:13:15;27.70;68.40
64484;DHT22;50862;51.642;7.964;2022-08-19T10:15:44;28.10;67.90
64484;DHT22;50862;51.642;7.964;2022-08-19T10:18:15;28.10;68.10
64484;DHT22;50862;51.642;7.964;2022-08-19T10:20:45;28.20;66.10
64484;DHT22;50862;51.642;7.964;2022-08-19T10:23:19;28.30;64.10
64484;DHT22;50862;51.642;7.964;2022-08-19T10:25:49;28.20;63.20
64484;DHT22;50862;51.642;7.964;2022-08-19T10:28:20;28.20;64.30
64484;DHT22;50862;51.642;7.964;2022-08-19T10:30:51;28.10;64.10
64484;DHT22;50862;51.642;7.964;2022-08-19T10:33:20;28.10;63.90
64484;DHT22;50862;51.642;7.964;2022-08-19T10:36:09;28.10;62.80
64484;DHT22;50862;51.642;7.964;2022-08-19T10:38:38;28.20;64.10
64484;DHT22;50862;51.642;7.964;2022-08-19T10:41:21;28.30;63.00
64484;DHT22;50862;51.642;7.964;2022-08-19T10:43:51;28.30;61.40
64484;DHT22;50862;51.642;7.964;2022-08-19T10:46:23;28.50;61.00
64484;DHT22;50862;51.642;7.964;2022-08-19T10:48:52;28.50;60.60
64484;DHT22;50862;51.642;7.964;2022-08-19T10:51:21;28.30;60.60
64484;DHT22;50862;51.642;7.964;2022-08-19T10:54:14;28.30;60.90
64484;DHT22;50862;51.642;7.964;2022-08-19T10:56:42;28.30;59.70
64484;DHT22;50862;51.642;7.964;2022-08-19T10:59:21;28.10;60.20
64484;DHT22;50862;51.642;7.964;2022-08-19T11:01:58;27.90;60.30
64484;DHT22;50862;51.642;7.964;2022-08-19T11:04:27;27.80;62.60
64484;DHT22;50862;51.642;7.964;2022-08-19T11:06:55;28.00;60.80
64484;DHT22;50862;51.642;7.964;2022-08-19T11:09:25;28.00;60.80
64484;DHT22;50862;51.642;7.964;2022-08-19T11:12:00;28.10;60.80
64484;DHT22;50862;51.642;7.964;2022-08-19T11:14:31;28.20;61.70
64484;DHT22;50862;51.642;7.964;2022-08-19T11:17:03;28.30;60.40
64484;DHT22;50862;51.642;7.964;2022-08-19T11:19:32;30.10;62.00
64484;DHT22;50862;51.642;7.964;2022-08-19T11:22:00;28.30;60.60
64484;DHT22;50862;51.642;7.964;2022-08-19T11:24:30;28.40;59.60
64484;DHT22;50862;51.642;7.964;2022-08-19T11:27:05;28.50;59.00
64484;DHT22;50862;51.642;7.964;2022-08-19T11:29:34;27.90;59.00
64484;DHT22;50862;51.642;7.964;2022-08-19T11:32:06;27.40;58.80
64484;DHT22;50862;51.642;7.964;2022-08-19T11:34:36;27.60;60.30
64484;DHT22;50862;51.642;7.964;2022-08-19T11:37:05;28.10;61.60
64484;DHT22;50862;51.642;7.964;2022-08-19T11:39:36;28.60;61.60
64484;DHT22;50862;51.642;7.964;2022-08-19T11:42:06;28.70;59.80
64484;DHT22;50862;51.642;7.964;2022-08-19T11:44:48;28.90;59.10
64484;DHT22;50862;51.642;7.964;2022-08-19T11:47:19;29.10;56.60
64484;DHT22;50862;51.642;7.964;2022-08-19T11:49:47;29.10;57.40
64484;DHT22;50862;51.642;7.964;2022-08-19T11:52:15;29.20;55.70
64484;DHT22;50862;51.642;7.964;2022-08-19T11:54:44;29.20;56.80
64484;DHT22;50862;51.642;7.964;2022-08-19T11:57:13;29.20;56.20
64484;DHT22;50862;51.642;7.964;2022-08-19T11:59:48;29.10;57.00
64484;DHT22;50862;51.642;7.964;2022-08-19T12:02:18;28.80;57.20
64484;DHT22;50862;51.642;7.964;2022-08-19T12:04:48;28.30;57.80
64484;DHT22;50862;51.642;7.964;2022-08-19T12:07:16;28.00;56.70
64484;DHT22;50862;51.642;7.964;2022-08-19T12:09:44;28.00;57.80
64484;DHT22;50862;51.642;7.964;2022-08-19T12:12:14;27.90;55.90
64484;DHT22;50862;51.642;7.964;2022-08-19T12:14:43;27.80;57.40
64484;DHT22;50862;51.642;7.964;2022-08-19T12:17:13;28.00;57.70
64484;DHT22;50862;51.642;7.964;2022-08-19T12:19:43;28.20;57.10
64484;DHT22;50862;51.642;7.964;2022-08-19T12:22:11;28.10;56.60
64484;DHT22;50862;51.642;7.964;2022-08-19T12:24:39;28.10;56.80
64484;DHT22;50862;51.642;7.964;2022-08-19T12:27:08;27.60;57.10
64484;DHT22;50862;51.642;7.964;2022-08-19T12:29:38;27.50;55.70
64484;DHT22;50862;51.642;7.964;2022-08-19T12:32:08;27.60;55.40
64484;DHT22;50862;51.642;7.964;2022-08-19T12:34:38;27.90;56.00
64484;DHT22;50862;51.642;7.964;2022-08-19T12:37:08;28.30;54.80
64484;DHT22;50862;51.642;7.964;2022-08-19T12:39:39;28.20;54.00
64484;DHT22;50862;51.642;7.964;2022-08-19T12:42:09;27.90;54.30
64484;DHT22;50862;51.642;7.964;2022-08-19T12:44:38;27.90;55.20
64484;DHT22;50862;51.642;7.964;2022-08-19T12:47:10;27.80;56.60
64484;DHT22;50862;51.642;7.964;2022-08-19T12:49:39;28.10;58.00
64484;DHT22;50862;51.642;7.964;2022-08-19T12:52:24;28.30;56.10
64484;DHT22;50862;51.642;7.964;2022-08-19T12:54:55;28.10;55.20
64484;DHT22;50862;51.642;7.964;2022-08-19T12:57:26;27.70;56.50
64484;DHT22;50862;51.642;7.964;2022-08-19T13:00:00;27.40;56.20
64484;DHT22;50862;51.642;7.964;2022-08-19T13:02:31;27.30;57.10
64484;DHT22;50862;51.642;7.964;2022-08-19T13:05:06;27.20;57.30
64484;DHT22;50862;51.642;7.964;2022-08-19T13:07:40;27.10;57.90
64484;DHT22;50862;51.642;7.964;2022-08-19T13:10:12;27.30;58.30
64484;DHT22;50862;51.642;7.964;2022-08-19T13:12:42;27.50;58.50
64484;DHT22;50862;51.642;7.964;2022-08-19T13:15:10;28.00;57.00
64484;DHT22;50862;51.642;7.964;2022-08-19T13:17:41;28.60;56.50
64484;DHT22;50862;51.642;7.964;2022-08-19T13:20:10;28.50;56.40
64484;DHT22;50862;51.642;7.964;2022-08-19T13:22:40;28.40;55.90
64484;DHT22;50862;51.642;7.964;2022-08-19T13:25:10;27.70;56.30
64484;DHT22;50862;51.642;7.964;2022-08-19T13:27:38;27.50;57.50
64484;DHT22;50862;51.642;7.964;2022-08-19T13:30:08;27.50;57.60
64484;DHT22;50862;51.642;7.964;2022-08-19T13:32:54;27.60;57.70
64484;DHT22;50862;51.642;7.964;2022-08-19T13:35:39;27.60;57.00
64484;DHT22;50862;51.642;7.964;2022-08-19T13:38:10;27.70;57.00
64484;DHT22;50862;51.642;7.964;2022-08-19T13:40:40;27.90;56.20
64484;DHT22;50862;51.642;7.964;2022-08-19T13:43:09;28.30;55.60
64484;DHT22;50862;51.642;7.964;2022-08-19T13:45:50;27.90;55.90
64484;DHT22;50862;51.642;7.964;2022-08-19T13:48:23;28.10;55.80
64484;DHT22;50862;51.642;7.964;2022-08-19T13:50:53;27.70;55.50
64484;DHT22;50862;51.642;7.964;2022-08-19T13:53:23;27.50;56.30
64484;DHT22;50862;51.642;7.964;2022-08-19T13:55:51;27.60;56.40
64484;DHT22;50862;51.642;7.964;2022-08-19T13:58:20;27.40;55.90
64484;DHT22;50862;51.642;7.964;2022-08-19T14:00:49;27.40;56.10
64484;DHT22;50862;51.642;7.964;2022-08-19T14:03:17;27.30;56.10
64484;DHT22;50862;51.642;7.964;2022-08-19T14:05:45;27.30;56.30
64484;DHT22;50862;51.642;7.964;2022-08-19T14:08:14;27.30;56.30
64484;DHT22;50862;51.642;7.964;2022-08-19T14:10:44;27.50;55.70
64484;DHT22;50862;51.642;7.964;2022-08-19T14:13:14;27.90;55.20
64484;DHT22;50862;51.642;7.964;2022-08-19T14:15:44;28.40;54.00
64484;DHT22;50862;51.642;7.964;2022-08-19T14:18:12;28.60;53.50
64484;DHT22;50862;51.642;7.964;2022-08-19T14:20:41;29.00;52.30
64484;DHT22;50862;51.642;7.964;2022-08-19T14:23:09;29.20;51.40
64484;DHT22;50862;51.642;7.964;2022-08-19T14:25:38;29.30;51.60
64484;DHT22;50862;51.642;7.964;2022-08-19T14:28:08;29.30;50.80
64484;DHT22;50862;51.642;7.964;2022-08-19T14:30:38;29.40;50.30
64484;DHT22;50862;51.642;7.964;2022-08-19T14:33:06;29.20;50.00
64484;DHT22;50862;51.642;7.964;2022-08-19T14:35:36;29.00;49.90
64484;DHT22;50862;51.642;7.964;2022-08-19T14:38:05;28.70;50.30
64484;DHT22;50862;51.642;7.964;2022-08-19T14:40:34;28.70;50.30
64484;DHT22;50862;51.642;7.964;2022-08-19T14:43:04;28.90;49.90
64484;DHT22;50862;51.642;7.964;2022-08-19T14:45:36;29.00;50.20
64484;DHT22;50862;51.642;7.964;2022-08-19T14:48:07;28.90;49.30
64484;DHT22;50862;51.642;7.964;2022-08-19T14:50:45;29.00;50.40
64484;DHT22;50862;51.642;7.964;2022-08-19T14:53:13;29.30;49.50
64484;DHT22;50862;51.642;7.964;2022-08-19T14:55:44;29.40;48.90
64484;DHT22;50862;51.642;7.964;2022-08-19T14:58:13;29.00;48.80
64484;DHT22;50862;51.642;7.964;2022-08-19T15:00:58;29.10;49.70
64484;DHT22;50862;51.642;7.964;2022-08-19T15:03:27;29.00;49.40
64484;DHT22;50862;51.642;7.964;2022-08-19T15:05:55;28.70;50.30
64484;DHT22;50862;51.642;7.964;2022-08-19T15:08:27;28.50;50.80
64484;DHT22;50862;51.642;7.964;2022-08-19T15:10:56;28.30;51.40
64484;DHT22;50862;51.642;7.964;2022-08-19T15:13:26;28.00;52.20
64484;DHT22;50862;51.642;7.964;2022-08-19T15:15:56;27.90;52.90
64484;DHT22;50862;51.642;7.964;2022-08-19T15:18:24;27.90;52.80
64484;DHT22;50862;51.642;7.964;2022-08-19T15:20:53;27.70;53.00
64484;DHT22;50862;51.642;7.964;2022-08-19T15:23:21;27.60;52.90
64484;DHT22;50862;51.642;7.964;2022-08-19T15:25:50;27.70;53.50
64484;DHT22;50862;51.642;7.964;2022-08-19T15:28:23;27.90;52.80
64484;DHT22;50862;51.642;7.964;2022-08-19T15:30:51;27.90;52.60
64484;DHT22;50862;51.642;7.964;2022-08-19T15:33:21;27.70;53.00
64484;DHT22;50862;51.642;7.964;2022-08-19T15:35:49;27.60;53.70
64484;DHT22;50862;51.642;7.964;2022-08-19T15:38:18;27.70;53.30
64484;DHT22;50862;51.642;7.964;2022-08-19T15:40:48;27.90;52.70
64484;DHT22;50862;51.642;7.964;2022-08-19T15:43:18;28.00;52.60
64484;DHT22;50862;51.642;7.964;2022-08-19T15:45:47;27.90;51.80
64484;DHT22;50862;51.642;7.964;2022-08-19T15:48:15;28.00;52.40
64484;DHT22;50862;51.642;7.964;2022-08-19T15:50:45;28.10;52.50
64484;DHT22;50862;51.642;7.964;2022-08-19T15:53:14;28.10;51.60
64484;DHT22;50862;51.642;7.964;2022-08-19T15:55:44;28.10;52.00
64484;DHT22;50862;51.642;7.964;2022-08-19T15:58:14;28.10;52.30
64484;DHT22;50862;51.642;7.964;2022-08-19T16:01:03;27.80;51.90
64484;DHT22;50862;51.642;7.964;2022-08-19T16:03:50;27.50;53.10
64484;DHT22;50862;51.642;7.964;2022-08-19T16:06:44;27.40;53.10
64484;DHT22;50862;51.642;7.964;2022-08-19T16:09:14;27.30;53.20
64484;DHT22;50862;51.642;7.964;2022-08-19T16:11:42;27.10;53.20
64484;DHT22;50862;51.642;7.964;2022-08-19T16:14:12;27.10;53.80
64484;DHT22;50862;51.642;7.964;2022-08-19T16:16:41;27.10;54.10
64484;DHT22;50862;51.642;7.964;2022-08-19T16:19:10;27.20;54.10
64484;DHT22;50862;51.642;7.964;2022-08-19T16:21:39;27.20;54.50
64484;DHT22;50862;51.642;7.964;2022-08-19T16:24:11;27.20;53.50
64484;DHT22;50862;51.642;7.964;2022-08-19T16:26:40;27.20;54.00
64484;DHT22;50862;51.642;7.964;2022-08-19T16:29:10;27.10;54.00
64484;DHT22;50862;51.642;7.964;2022-08-19T16:31:40;27.10;54.30
64484;DHT22;50862;51.642;7.964;2022-08-19T16:34:09;27.10;53.80
64484;DHT22;50862;51.642;7.964;2022-08-19T16:36:38;27.10;54.50
64484;DHT22;50862;51.642;7.964;2022-08-19T16:39:09;27.10;53.90
64484;DHT22;50862;51.642;7.964;2022-08-19T16:41:39;27.00;53.80
64484;DHT22;50862;51.642;7.964;2022-08-19T16:44:10;27.00;54.40
64484;DHT22;50862;51.642;7.964;2022-08-19T16:46:39;27.10;54.40
64484;DHT22;50862;51.642;7.964;2022-08-19T16:49:09;27.10;53.90
64484;DHT22;50862;51.642;7.964;2022-08-19T16:51:38;27.10;53.80
64484;DHT22;50862;51.642;7.964;2022-08-19T16:54:07;27.10;53.50